createdAt,value
2018-06-28T00:00:53.059Z,99.99
2018-06-28T00:01:53.262Z,99.99
2018-06-28T00:02:53.443Z,99.99
2018-06-28T00:03:53.627Z,99.99
2018-06-28T00:04:53.874Z,99.99
2018-06-28T00:05:54.020Z,99.99
2018-06-28T00:06:54.223Z,99.99
2018-06-28T00:07:54.426Z,99.99
2018-06-28T00:08:54.668Z,99.99
2018-06-28T00:09:54.844Z,99.99
2018-06-28T00:10:55.091Z,99.99
2018-06-28T00:11:55.395Z,99.99
2018-06-28T00:12:55.460Z,99.99
2018-06-28T00:13:55.661Z,99.99
2018-06-28T00:14:55.838Z,99.99
2018-06-28T00:15:56.033Z,99.99
2018-06-28T00:16:56.211Z,99.99
2018-06-28T00:17:56.393Z,99.99
2018-06-28T00:18:56.555Z,99.99
2018-06-28T00:19:56.733Z,99.99
2018-06-28T00:20:56.927Z,99.99
2018-06-28T00:21:57.134Z,99.99
2018-06-28T00:22:57.309Z,99.99
2018-06-28T00:23:57.492Z,99.99
2018-06-28T00:24:57.704Z,99.99
2018-06-28T00:25:57.899Z,99.99
2018-06-28T00:26:58.128Z,99.99
2018-06-28T00:27:58.329Z,99.99
2018-06-28T00:28:58.543Z,99.99
2018-06-28T00:29:58.717Z,99.99
2018-06-28T00:30:58.892Z,99.99
2018-06-28T00:31:59.069Z,99.99
2018-06-28T00:32:59.258Z,99.99
2018-06-28T00:33:59.477Z,99.99
2018-06-28T00:34:59.715Z,99.99
2018-06-28T00:35:59.919Z,99.99
2018-06-28T00:37:00.178Z,99.99
2018-06-28T00:38:00.292Z,99.99
2018-06-28T00:39:00.624Z,99.99
2018-06-28T00:40:00.794Z,99.99
2018-06-28T00:41:00.932Z,99.99
2018-06-28T00:42:01.130Z,99.99
2018-06-28T00:43:01.532Z,99.99
2018-06-28T00:44:01.500Z,99.99
2018-06-28T00:45:01.701Z,99.99
2018-06-28T00:46:01.939Z,99.99
2018-06-28T00:47:02.322Z,99.99
2018-06-28T00:48:02.376Z,99.99
2018-06-28T00:49:02.634Z,99.99
2018-06-28T00:50:02.751Z,99.99
2018-06-28T00:51:02.956Z,99.99
2018-06-28T00:52:03.161Z,99.99
2018-06-28T00:53:03.321Z,99.99
2018-06-28T00:54:03.506Z,99.99
2018-06-28T00:55:03.697Z,99.99
2018-06-28T00:56:03.912Z,99.99
2018-06-28T00:57:04.100Z,99.99
2018-06-28T00:58:04.295Z,99.99
2018-06-28T00:59:04.525Z,99.99
2018-06-28T01:00:04.704Z,99.99
2018-06-28T01:01:04.887Z,99.99
2018-06-28T01:02:05.089Z,99.99
2018-06-28T01:03:05.255Z,99.99
2018-06-28T01:04:05.439Z,99.99
2018-06-28T01:05:05.614Z,99.99
2018-06-28T01:06:05.858Z,99.99
2018-06-28T01:07:05.943Z,99.99
2018-06-28T01:08:06.124Z,99.99
2018-06-28T01:09:06.318Z,99.99
2018-06-28T01:10:06.524Z,99.99
2018-06-28T01:11:06.629Z,99.99
2018-06-28T01:12:06.842Z,99.99
2018-06-28T01:13:07.044Z,99.99
2018-06-28T01:14:07.220Z,99.99
2018-06-28T01:15:07.432Z,99.99
2018-06-28T01:16:07.612Z,99.99
2018-06-28T01:17:07.796Z,99.99
2018-06-28T01:18:07.997Z,99.99
2018-06-28T01:19:08.146Z,99.99
2018-06-28T01:20:08.351Z,99.99
2018-06-28T01:21:08.552Z,99.99
2018-06-28T01:22:08.739Z,99.99
2018-06-28T01:23:08.918Z,99.99
2018-06-28T01:24:09.088Z,99.99
2018-06-28T01:25:09.275Z,99.99
2018-06-28T01:26:09.466Z,99.99
2018-06-28T01:27:09.616Z,99.99
2018-06-28T01:28:09.805Z,99.99
2018-06-28T01:29:09.996Z,99.99
2018-06-28T01:30:10.195Z,99.99
2018-06-28T01:31:10.393Z,99.99
2018-06-28T01:32:10.572Z,99.99
2018-06-28T01:33:10.795Z,99.99
2018-06-28T01:34:10.951Z,99.99
2018-06-28T01:35:11.135Z,99.99
2018-06-28T01:36:11.321Z,99.99
2018-06-28T01:37:11.511Z,99.99
2018-06-28T01:38:11.704Z,99.99
2018-06-28T01:39:11.875Z,99.99
2018-06-28T01:40:12.049Z,99.99
2018-06-28T01:41:12.240Z,99.99
2018-06-28T01:42:12.444Z,99.99
2018-06-28T01:43:12.600Z,99.99
2018-06-28T01:44:12.789Z,99.99
2018-06-28T01:45:12.972Z,99.99
2018-06-28T01:46:13.175Z,99.99
2018-06-28T01:47:13.378Z,99.99
2018-06-28T01:48:13.582Z,99.99
2018-06-28T01:49:13.736Z,99.99
2018-06-28T01:50:13.941Z,99.99
2018-06-28T01:51:14.132Z,99.99
2018-06-28T01:52:14.303Z,99.99
2018-06-28T01:53:14.488Z,99.99
2018-06-28T01:54:14.693Z,99.99
2018-06-28T01:55:14.895Z,99.99
2018-06-28T01:56:15.035Z,99.99
2018-06-28T01:57:15.241Z,99.99
2018-06-28T01:58:15.407Z,99.99
2018-06-28T01:59:15.604Z,99.76
2018-06-28T02:00:15.785Z,99.99
2018-06-28T02:01:15.949Z,99.99
2018-06-28T02:02:16.142Z,99.99
2018-06-28T02:03:16.335Z,99.99
2018-06-28T02:04:16.545Z,99.95
2018-06-28T02:05:16.729Z,99.99
2018-06-28T02:06:17.031Z,99.85
2018-06-28T02:07:17.103Z,99.99
2018-06-28T02:08:17.365Z,99.57
2018-06-28T02:09:17.509Z,98.71
2018-06-28T02:10:17.612Z,98.80
2018-06-28T02:11:17.744Z,98.52
2018-06-28T02:12:17.990Z,98.03
2018-06-28T02:13:18.220Z,97.47
2018-06-28T02:14:18.452Z,97.08
2018-06-28T02:15:18.577Z,96.80
2018-06-28T02:16:18.761Z,96.51
2018-06-28T02:17:18.953Z,96.03
2018-06-28T02:18:19.131Z,95.94
2018-06-28T02:19:19.333Z,95.75
2018-06-28T02:20:19.473Z,95.08
2018-06-28T02:21:19.647Z,95.17
2018-06-28T02:22:19.827Z,95.08
2018-06-28T02:23:20.142Z,94.89
2018-06-28T02:24:20.226Z,94.79
2018-06-28T02:25:20.410Z,94.51
2018-06-28T02:26:20.627Z,95.17
2018-06-28T02:27:20.821Z,94.98
2018-06-28T02:28:21.023Z,94.12
2018-06-28T02:29:21.198Z,94.79
2018-06-28T02:30:21.417Z,94.22
2018-06-28T02:31:21.614Z,94.03
2018-06-28T02:32:21.836Z,94.22
2018-06-28T02:33:22.033Z,93.98
2018-06-28T02:34:22.223Z,93.46
2018-06-28T02:35:22.393Z,94.22
2018-06-28T02:36:22.624Z,94.22
2018-06-28T02:37:22.807Z,94.03
2018-06-28T02:38:22.968Z,94.70
2018-06-28T02:39:23.139Z,94.51
2018-06-28T02:40:23.364Z,94.41
2018-06-28T02:41:23.540Z,94.60
2018-06-28T02:42:23.726Z,94.22
2018-06-28T02:43:23.929Z,94.89
2018-06-28T02:44:24.173Z,94.22
2018-06-28T02:45:24.386Z,93.51
2018-06-28T02:46:24.491Z,93.12
2018-06-28T02:47:24.696Z,92.46
2018-06-28T02:48:25.178Z,92.55
2018-06-28T02:49:25.072Z,92.17
2018-06-28T02:50:25.297Z,90.93
2018-06-28T02:51:25.523Z,91.12
2018-06-28T02:52:25.743Z,90.64
2018-06-28T02:53:26.047Z,90.17
2018-06-28T02:54:26.199Z,89.78
2018-06-28T02:55:26.417Z,90.17
2018-06-28T02:56:26.467Z,89.59
2018-06-28T02:57:26.647Z,89.78
2018-06-28T02:58:26.859Z,89.69
2018-06-28T02:59:27.048Z,89.97
2018-06-28T03:00:27.261Z,89.31
2018-06-28T03:01:27.460Z,89.12
2018-06-28T03:02:27.511Z,89.78
2018-06-28T03:03:27.740Z,89.50
2018-06-28T03:04:27.916Z,89.59
2018-06-28T03:05:28.008Z,89.88
2018-06-28T03:06:28.227Z,90.26
2018-06-28T03:07:28.444Z,90.07
2018-06-28T03:08:28.593Z,89.88
2018-06-28T03:09:28.729Z,90.36
2018-06-28T03:10:28.918Z,90.50
2018-06-28T03:11:29.274Z,90.21
2018-06-28T03:12:29.445Z,90.97
2018-06-28T03:13:29.476Z,90.73
2018-06-28T03:14:29.739Z,91.31
2018-06-28T03:15:29.879Z,91.21
2018-06-28T03:16:30.032Z,91.21
2018-06-28T03:17:30.129Z,91.21
2018-06-28T03:18:30.320Z,91.16
2018-06-28T03:19:30.490Z,90.55
2018-06-28T03:20:30.724Z,90.93
2018-06-28T03:21:30.889Z,91.21
2018-06-28T03:22:31.044Z,90.73
2018-06-28T03:23:31.106Z,90.73
2018-06-28T03:24:31.311Z,91.02
2018-06-28T03:25:31.558Z,90.93
2018-06-28T03:26:31.739Z,91.02
2018-06-28T03:27:32.160Z,90.83
2018-06-28T03:28:32.205Z,90.83
2018-06-28T03:29:32.605Z,91.12
2018-06-28T03:30:33.081Z,91.02
2018-06-28T03:31:33.970Z,90.45
2018-06-28T03:32:33.486Z,89.50
2018-06-28T03:33:33.214Z,89.02
2018-06-28T03:34:33.819Z,88.64
2018-06-28T03:35:33.670Z,88.07
2018-06-28T03:36:35.601Z,88.07
2018-06-28T03:37:35.424Z,88.16
2018-06-28T03:38:34.097Z,87.97
2018-06-28T03:39:35.352Z,88.26
2018-06-28T03:40:34.415Z,87.87
2018-06-28T03:41:34.625Z,88.16
2018-06-28T03:42:34.636Z,88.16
2018-06-28T03:43:34.919Z,87.59
2018-06-28T03:44:35.221Z,87.40
2018-06-28T03:45:35.221Z,87.40
2018-06-28T03:46:35.634Z,87.21
2018-06-28T03:47:35.836Z,87.59
2018-06-28T03:48:35.853Z,88.26
2018-06-28T03:49:35.941Z,88.07
2018-06-28T03:50:36.298Z,88.16
2018-06-28T03:51:36.558Z,88.16
2018-06-28T03:52:36.557Z,88.16
2018-06-28T03:53:36.683Z,87.59
2018-06-28T03:54:39.057Z,87.49
2018-06-28T03:55:37.422Z,87.40
2018-06-28T03:56:37.268Z,87.59
2018-06-28T03:57:37.510Z,87.49
2018-06-28T03:58:37.512Z,87.87
2018-06-28T03:59:37.580Z,87.78
2018-06-28T04:00:37.807Z,87.40
2018-06-28T04:01:37.841Z,87.40
2018-06-28T04:02:38.118Z,87.44
2018-06-28T04:03:38.360Z,87.30
2018-06-28T04:04:38.638Z,88.16
2018-06-28T04:05:38.792Z,88.30
2018-06-28T04:06:38.869Z,88.30
2018-06-28T04:07:39.100Z,88.11
2018-06-28T04:08:39.346Z,88.40
2018-06-28T04:09:39.539Z,88.68
2018-06-28T04:10:39.758Z,88.97
2018-06-28T04:11:39.962Z,89.45
2018-06-28T04:12:40.194Z,89.64
2018-06-28T04:13:40.548Z,89.64
2018-06-28T04:14:40.893Z,90.11
2018-06-28T04:15:40.792Z,90.40
2018-06-28T04:16:41.196Z,91.16
2018-06-28T04:17:41.505Z,91.16
2018-06-28T04:18:42.092Z,90.88
2018-06-28T04:19:42.268Z,91.16
2018-06-28T04:20:58.105Z,91.02
2018-06-28T04:21:42.086Z,91.45
2018-06-28T04:22:42.367Z,91.59
2018-06-28T04:23:42.318Z,91.26
2018-06-28T04:24:42.301Z,91.55
2018-06-28T04:25:42.552Z,91.36
2018-06-28T04:26:42.801Z,90.88
2018-06-28T04:27:42.750Z,91.21
2018-06-28T04:28:42.971Z,91.11
2018-06-28T04:29:43.103Z,91.36
2018-06-28T04:30:43.535Z,92.02
2018-06-28T04:31:43.652Z,91.55
2018-06-28T04:32:43.490Z,91.21
2018-06-28T04:33:44.173Z,91.59
2018-06-28T04:34:44.297Z,91.50
2018-06-28T04:35:55.067Z,91.50
2018-06-28T04:36:44.734Z,91.78
2018-06-28T04:37:44.952Z,91.78
2018-06-28T04:38:46.047Z,92.64
2018-06-28T04:39:44.910Z,93.70
2018-06-28T04:40:46.036Z,92.74
2018-06-28T04:41:45.297Z,93.36
2018-06-28T04:42:45.545Z,93.02
2018-06-28T04:43:45.900Z,93.65
2018-06-28T04:44:46.192Z,93.93
2018-06-28T04:45:46.431Z,95.79
2018-06-28T04:46:46.654Z,96.51
2018-06-28T04:47:46.518Z,97.33
2018-06-28T04:48:46.861Z,99.77
2018-06-28T04:49:46.934Z,99.67
2018-06-28T04:50:46.851Z,99.67
2018-06-28T04:51:47.021Z,99.99
2018-06-28T04:52:47.996Z,99.99
2018-06-28T04:53:47.543Z,99.99
2018-06-28T04:54:47.944Z,99.99
2018-06-28T04:55:47.646Z,99.99
2018-06-28T04:56:48.141Z,99.99
2018-06-28T04:57:48.067Z,99.99
2018-06-28T04:58:48.265Z,99.99
2018-06-28T04:59:48.459Z,99.99
2018-06-28T05:00:48.654Z,99.99
2018-06-28T05:01:48.830Z,99.99
2018-06-28T05:02:48.914Z,99.99
2018-06-28T05:03:49.109Z,99.99
2018-06-28T05:04:49.478Z,99.99
2018-06-28T05:05:49.597Z,99.99
2018-06-28T05:06:49.903Z,99.99
2018-06-28T05:07:49.995Z,99.99
2018-06-28T05:08:50.229Z,99.99
2018-06-28T05:09:50.477Z,99.99
2018-06-28T05:10:50.939Z,99.10
2018-06-28T05:11:50.823Z,99.58
2018-06-28T05:12:51.074Z,98.63
2018-06-28T05:13:51.327Z,98.19
2018-06-28T05:14:51.534Z,97.76
2018-06-28T05:15:51.699Z,97.57
2018-06-28T05:16:52.068Z,95.60
2018-06-28T05:17:52.501Z,95.02
2018-06-28T05:18:52.772Z,94.30
2018-06-28T05:19:52.472Z,94.98
2018-06-28T05:20:53.078Z,95.31
2018-06-28T05:21:53.258Z,94.98
2018-06-28T05:22:53.375Z,94.59
2018-06-28T05:23:53.386Z,94.64
2018-06-28T05:24:53.696Z,93.87
2018-06-28T05:25:53.706Z,93.77
2018-06-28T05:26:53.859Z,93.24
2018-06-28T05:27:54.227Z,93.15
2018-06-28T05:28:54.161Z,93.29
2018-06-28T05:29:54.368Z,92.03
2018-06-28T05:30:54.570Z,91.31
2018-06-28T05:31:55.041Z,91.21
2018-06-28T05:32:55.182Z,90.00
2018-06-28T05:33:55.280Z,90.25
2018-06-28T05:34:55.556Z,90.44
2018-06-28T05:35:55.665Z,90.88
2018-06-28T05:36:55.924Z,91.27
2018-06-28T05:37:56.244Z,90.73
2018-06-28T05:38:56.442Z,90.83
2018-06-28T05:39:56.542Z,89.77
2018-06-28T05:40:56.674Z,89.67
2018-06-28T05:41:57.126Z,88.95
2018-06-28T05:42:57.837Z,87.98
2018-06-28T05:43:57.286Z,87.88
2018-06-28T05:44:57.507Z,88.51
2018-06-28T05:45:57.743Z,89.09
2018-06-28T05:46:58.687Z,88.46
2018-06-28T05:47:58.355Z,88.65
2018-06-28T05:48:58.500Z,89.48
2018-06-28T05:49:58.659Z,89.09
2018-06-28T05:51:00.293Z,89.86
